sensor_id;sensor_type;location;lat;lon;timestamp;temperature;humidity
15184;DHT22;7693;49.266;7.104;2023-05-20T04:44:06;13.50;94.20
15184;DHT22;7693;49.266;7.104;2023-05-20T04:46:31;13.60;95.50
15184;DHT22;7693;49.266;7.104;2023-05-20T04:48:58;13.60;95.60
15184;DHT22;7693;49.266;7.104;2023-05-20T04:51:23;13.70;95.80
15184;DHT22;7693;49.266;7.104;2023-05-20T04:53:49;13.70;95.90
15184;DHT22;7693;49.266;7.104;2023-05-20T04:56:15;13.80;96.10
15184;DHT22;7693;49.266;7.104;2023-05-20T04:58:41;13.90;96.30
15184;DHT22;7693;49.266;7.104;2023-05-20T05:01:06;13.90;96.40
15184;DHT22;7693;49.266;7.104;2023-05-20T05:03:32;14.00;96.40
15184;DHT22;7693;49.266;7.104;2023-05-20T05:05:58;14.00;96.50
15184;DHT22;7693;49.266;7.104;2023-05-20T05:08:24;14.00;96.50
15184;DHT22;7693;49.266;7.104;2023-05-20T05:10:50;14.00;96.50
15184;DHT22;7693;49.266;7.104;2023-05-20T05:13:19;14.00;96.60
15184;DHT22;7693;49.266;7.104;2023-05-20T05:15:44;14.00;96.60
15184;DHT22;7693;49.266;7.104;2023-05-20T05:18:10;14.00;96.70
15184;DHT22;7693;49.266;7.104;2023-05-20T05:20:36;14.00;96.70
15184;DHT22;7693;49.266;7.104;2023-05-20T05:23:01;14.00;96.80
15184;DHT22;7693;49.266;7.104;2023-05-20T05:25:27;14.00;96.90
15184;DHT22;7693;49.266;7.104;2023-05-20T05:27:55;14.00;97.00
15184;DHT22;7693;49.266;7.104;2023-05-20T05:30:21;14.00;97.00
15184;DHT22;7693;49.266;7.104;2023-05-20T05:32:47;14.10;97.10
15184;DHT22;7693;49.266;7.104;2023-05-20T05:35:13;14.00;97.10
15184;DHT22;7693;49.266;7.104;2023-05-20T05:37:38;14.00;97.20
15184;DHT22;7693;49.266;7.104;2023-05-20T05:40:04;14.10;97.30
15184;DHT22;7693;49.266;7.104;2023-05-20T05:42:30;14.10;97.30
15184;DHT22;7693;49.266;7.104;2023-05-20T05:44:55;14.10;97.40
15184;DHT22;7693;49.266;7.104;2023-05-20T05:47:21;14.10;97.50
15184;DHT22;7693;49.266;7.104;2023-05-20T05:49:47;14.10;97.70
15184;DHT22;7693;49.266;7.104;2023-05-20T05:52:12;14.20;97.80
15184;DHT22;7693;49.266;7.104;2023-05-20T05:54:38;14.30;98.00
15184;DHT22;7693;49.266;7.104;2023-05-20T05:57:04;14.40;98.30
15184;DHT22;7693;49.266;7.104;2023-05-20T05:59:30;14.50;98.20
15184;DHT22;7693;49.266;7.104;2023-05-20T06:01:55;14.60;98.20
15184;DHT22;7693;49.266;7.104;2023-05-20T06:04:21;14.70;98.30
15184;DHT22;7693;49.266;7.104;2023-05-20T06:06:47;14.80;98.40
15184;DHT22;7693;49.266;7.104;2023-05-20T06:09:12;14.90;98.40
15184;DHT22;7693;49.266;7.104;2023-05-20T06:11:38;15.00;98.50
15184;DHT22;7693;49.266;7.104;2023-05-20T06:14:06;15.10;98.50
15184;DHT22;7693;49.266;7.104;2023-05-20T06:16:32;15.10;98.30
15184;DHT22;7693;49.266;7.104;2023-05-20T06:18:57;15.10;98.10
15184;DHT22;7693;49.266;7.104;2023-05-20T06:21:23;15.00;98.10
15184;DHT22;7693;49.266;7.104;2023-05-20T06:23:48;15.00;98.20
15184;DHT22;7693;49.266;7.104;2023-05-20T06:26:14;15.00;98.30
15184;DHT22;7693;49.266;7.104;2023-05-20T06:28:40;15.00;98.40
15184;DHT22;7693;49.266;7.104;2023-05-20T06:31:05;15.00;98.60
15184;DHT22;7693;49.266;7.104;2023-05-20T06:33:31;15.10;98.80
15184;DHT22;7693;49.266;7.104;2023-05-20T06:35:57;15.10;98.70
15184;DHT22;7693;49.266;7.104;2023-05-20T06:38:23;15.20;98.60
15184;DHT22;7693;49.266;7.104;2023-05-20T06:40:49;15.20;98.70
15184;DHT22;7693;49.266;7.104;2023-05-20T06:43:15;15.20;98.80
15184;DHT22;7693;49.266;7.104;2023-05-20T06:45:40;15.30;98.90
15184;DHT22;7693;49.266;7.104;2023-05-20T06:48:06;15.30;98.80
15184;DHT22;7693;49.266;7.104;2023-05-20T06:50:32;15.30;98.90
15184;DHT22;7693;49.266;7.104;2023-05-20T06:52:58;15.40;99.20
15184;DHT22;7693;49.266;7.104;2023-05-20T06:55:23;15.40;99.20
15184;DHT22;7693;49.266;7.104;2023-05-20T06:57:49;15.50;99.10
15184;DHT22;7693;49.266;7.104;2023-05-20T07:00:14;15.50;99.30
15184;DHT22;7693;49.266;7.104;2023-05-20T07:02:41;15.60;99.50
15184;DHT22;7693;49.266;7.104;2023-05-20T07:05:08;15.80;99.40
15184;DHT22;7693;49.266;7.104;2023-05-20T07:07:34;15.80;99.40
15184;DHT22;7693;49.266;7.104;2023-05-20T07:09:59;15.90;99.80
15184;DHT22;7693;49.266;7.104;2023-05-20T07:12:25;16.10;99.90
15184;DHT22;7693;49.266;7.104;2023-05-20T07:14:50;16.30;99.90
15184;DHT22;7693;49.266;7.104;2023-05-20T07:17:16;16.50;99.90
15184;DHT22;7693;49.266;7.104;2023-05-20T07:19:42;16.70;99.90
15184;DHT22;7693;49.266;7.104;2023-05-20T07:22:08;16.80;99.90
15184;DHT22;7693;49.266;7.104;2023-05-20T07:24:35;16.90;99.90
15184;DHT22;7693;49.266;7.104;2023-05-20T07:27:01;16.90;99.40
15184;DHT22;7693;49.266;7.104;2023-05-20T07:29:26;16.90;99.50
15184;DHT22;7693;49.266;7.104;2023-05-20T07:31:52;17.00;99.70
15184;DHT22;7693;49.266;7.104;2023-05-20T07:34:18;17.10;99.90
15184;DHT22;7693;49.266;7.104;2023-05-20T07:36:43;17.20;99.90
15184;DHT22;7693;49.266;7.104;2023-05-20T07:39:09;17.40;99.90
15184;DHT22;7693;49.266;7.104;2023-05-20T07:41:36;17.40;99.90
15184;DHT22;7693;49.266;7.104;2023-05-20T07:44:04;17.50;99.90
15184;DHT22;7693;49.266;7.104;2023-05-20T07:46:30;17.60;99.80
15184;DHT22;7693;49.266;7.104;2023-05-20T07:48:56;17.60;99.30
15184;DHT22;7693;49.266;7.104;2023-05-20T07:51:21;17.50;99.30
15184;DHT22;7693;49.266;7.104;2023-05-20T07:53:47;17.50;99.40
15184;DHT22;7693;49.266;7.104;2023-05-20T07:56:13;17.50;99.50
15184;DHT22;7693;49.266;7.104;2023-05-20T07:58:40;17.50;99.90
15184;DHT22;7693;49.266;7.104;2023-05-20T08:01:07;17.60;99.90
15184;DHT22;7693;49.266;7.104;2023-05-20T08:03:34;17.70;99.90
15184;DHT22;7693;49.266;7.104;2023-05-20T08:05:59;17.80;99.70
15184;DHT22;7693;49.266;7.104;2023-05-20T08:08:25;17.80;99.90
15184;DHT22;7693;49.266;7.104;2023-05-20T08:10:51;17.90;99.80
15184;DHT22;7693;49.266;7.104;2023-05-20T08:13:17;17.90;99.50
15184;DHT22;7693;49.266;7.104;2023-05-20T08:15:42;17.90;99.40
15184;DHT22;7693;49.266;7.104;2023-05-20T08:18:08;17.70;99.10
15184;DHT22;7693;49.266;7.104;2023-05-20T08:20:33;17.60;98.90
15184;DHT22;7693;49.266;7.104;2023-05-20T08:22:59;17.50;99.20
15184;DHT22;7693;49.266;7.104;2023-05-20T08:25:25;17.40;99.50
15184;DHT22;7693;49.266;7.104;2023-05-20T08:27:50;17.40;99.20
15184;DHT22;7693;49.266;7.104;2023-05-20T08:30:16;17.30;99.20
15184;DHT22;7693;49.266;7.104;2023-05-20T08:32:42;17.30;99.40
15184;DHT22;7693;49.266;7.104;2023-05-20T08:35:08;17.20;99.50
15184;DHT22;7693;49.266;7.104;2023-05-20T08:37:33;17.20;99.50
15184;DHT22;7693;49.266;7.104;2023-05-20T08:39:59;17.30;99.70
15184;DHT22;7693;49.266;7.104;2023-05-20T08:42:25;17.30;99.60
15184;DHT22;7693;49.266;7.104;2023-05-20T08:44:51;17.30;99.80
15184;DHT22;7693;49.266;7.104;2023-05-20T08:47:21;17.40;99.90
15184;DHT22;7693;49.266;7.104;2023-05-20T08:49:48;17.50;99.90
15184;DHT22;7693;49.266;7.104;2023-05-20T08:52:15;17.50;99.80
15184;DHT22;7693;49.266;7.104;2023-05-20T08:54:46;17.50;99.80
15184;DHT22;7693;49.266;7.104;2023-05-20T08:57:13;17.50;99.50
15184;DHT22;7693;49.266;7.104;2023-05-20T08:59:41;17.40;99.30
15184;DHT22;7693;49.266;7.104;2023-05-20T09:02:08;17.30;99.30
15184;DHT22;7693;49.266;7.104;2023-05-20T09:04:34;17.30;99.50
15184;DHT22;7693;49.266;7.104;2023-05-20T09:07:00;17.20;99.70
15184;DHT22;7693;49.266;7.104;2023-05-20T09:09:26;17.30;99.90
15184;DHT22;7693;49.266;7.104;2023-05-20T09:11:51;17.30;99.90
15184;DHT22;7693;49.266;7.104;2023-05-20T09:14:17;17.40;99.90
15184;DHT22;7693;49.266;7.104;2023-05-20T09:16:43;17.50;99.90
15184;DHT22;7693;49.266;7.104;2023-05-20T09:19:09;17.60;99.90
15184;DHT22;7693;49.266;7.104;2023-05-20T09:21:35;17.70;99.90
15184;DHT22;7693;49.266;7.104;2023-05-20T09:24:01;17.70;99.90
15184;DHT22;7693;49.266;7.104;2023-05-20T09:26:30;17.80;99.90
15184;DHT22;7693;49.266;7.104;2023-05-20T09:28:56;17.80;99.90
15184;DHT22;7693;49.266;7.104;2023-05-20T09:31:26;17.90;99.90
15184;DHT22;7693;49.266;7.104;2023-05-20T09:33:53;17.90;99.90
15184;DHT22;7693;49.266;7.104;2023-05-20T09:36:19;18.00;99.90
15184;DHT22;7693;49.266;7.104;2023-05-20T09:38:50;18.00;99.90
15184;DHT22;7693;49.266;7.104;2023-05-20T09:41:17;18.00;99.90
15184;DHT22;7693;49.266;7.104;2023-05-20T09:43:46;18.00;99.90
15184;DHT22;7693;49.266;7.104;2023-05-20T09:46:12;18.10;99.90
15184;DHT22;7693;49.266;7.104;2023-05-20T09:48:39;18.10;99.90
15184;DHT22;7693;49.266;7.104;2023-05-20T09:51:05;18.20;99.90
15184;DHT22;7693;49.266;7.104;2023-05-20T09:53:32;18.40;99.90
15184;DHT22;7693;49.266;7.104;2023-05-20T09:55:58;18.60;99.90
15184;DHT22;7693;49.266;7.104;2023-05-20T09:58:24;18.50;99.90
15184;DHT22;7693;49.266;7.104;2023-05-20T13:55:29;21.30;96.60
15184;DHT22;7693;49.266;7.104;2023-05-20T13:57:58;21.30;96.90
15184;DHT22;7693;49.266;7.104;2023-05-20T14:00:23;21.30;96.80
15184;DHT22;7693;49.266;7.104;2023-05-20T14:02:49;21.30;96.80
15184;DHT22;7693;49.266;7.104;2023-05-20T14:05:14;21.30;96.90
15184;DHT22;7693;49.266;7.104;2023-05-20T14:07:41;21.10;96.30
15184;DHT22;7693;49.266;7.104;2023-05-20T14:10:06;21.00;96.90
15184;DHT22;7693;49.266;7.104;2023-05-20T14:12:33;21.10;96.90
15184;DHT22;7693;49.266;7.104;2023-05-20T14:14:59;21.10;97.00
15184;DHT22;7693;49.266;7.104;2023-05-20T14:17:24;21.10;97.10
15184;DHT22;7693;49.266;7.104;2023-05-20T20:20:48;18.00;96.90
15184;DHT22;7693;49.266;7.104;2023-05-20T20:23:14;18.00;97.80
15184;DHT22;7693;49.266;7.104;2023-05-20T20:25:39;18.00;98.10
15184;DHT22;7693;49.266;7.104;2023-05-20T20:28:06;18.00;98.30
15184;DHT22;7693;49.266;7.104;2023-05-20T20:30:32;18.00;98.50
15184;DHT22;7693;49.266;7.104;2023-05-20T20:32:58;17.90;98.50
15184;DHT22;7693;49.266;7.104;2023-05-20T20:35:24;18.00;98.70
15184;DHT22;7693;49.266;7.104;2023-05-20T20:37:50;17.90;98.70
15184;DHT22;7693;49.266;7.104;2023-05-20T20:40:19;17.90;98.90
15184;DHT22;7693;49.266;7.104;2023-05-20T20:42:45;17.90;98.90
15184;DHT22;7693;49.266;7.104;2023-05-20T20:45:14;17.90;99.00
15184;DHT22;7693;49.266;7.104;2023-05-20T20:47:41;17.80;99.10
15184;DHT22;7693;49.266;7.104;2023-05-20T20:50:08;17.80;99.10
15184;DHT22;7693;49.266;7.104;2023-05-20T20:52:36;17.80;99.20
15184;DHT22;7693;49.266;7.104;2023-05-20T20:55:04;17.70;99.20
15184;DHT22;7693;49.266;7.104;2023-05-20T20:57:29;17.70;99.30
15184;DHT22;7693;49.266;7.104;2023-05-20T20:59:56;17.70;99.40
15184;DHT22;7693;49.266;7.104;2023-05-20T21:02:23;17.70;99.50
15184;DHT22;7693;49.266;7.104;2023-05-20T21:04:49;17.70;99.50
15184;DHT22;7693;49.266;7.104;2023-05-20T21:07:15;17.60;99.50
15184;DHT22;7693;49.266;7.104;2023-05-20T21:09:43;17.60;99.50
15184;DHT22;7693;49.266;7.104;2023-05-20T21:12:08;17.50;99.60
15184;DHT22;7693;49.266;7.104;2023-05-20T21:14:35;17.50;99.70
15184;DHT22;7693;49.266;7.104;2023-05-20T21:17:01;17.50;99.80
15184;DHT22;7693;49.266;7.104;2023-05-20T21:19:27;17.50;99.80
15184;DHT22;7693;49.266;7.104;2023-05-20T21:21:54;17.50;99.80
15184;DHT22;7693;49.266;7.104;2023-05-20T21:24:19;17.40;99.90
15184;DHT22;7693;49.266;7.104;2023-05-20T21:26:45;17.40;99.90
15184;DHT22;7693;49.266;7.104;2023-05-20T21:29:11;17.40;99.90
15184;DHT22;7693;49.266;7.104;2023-05-20T21:31:37;17.30;99.90
15184;DHT22;7693;49.266;7.104;2023-05-20T21:34:02;17.30;99.90
15184;DHT22;7693;49.266;7.104;2023-05-20T21:36:28;17.30;99.90
15184;DHT22;7693;49.266;7.104;2023-05-20T21:38:53;17.30;99.90
15184;DHT22;7693;49.266;7.104;2023-05-20T21:41:19;17.30;99.90
15184;DHT22;7693;49.266;7.104;2023-05-20T21:43:45;17.20;99.90
15184;DHT22;7693;49.266;7.104;2023-05-20T21:46:11;17.20;99.90
15184;DHT22;7693;49.266;7.104;2023-05-20T21:48:37;17.20;99.90
15184;DHT22;7693;49.266;7.104;2023-05-20T21:51:03;17.20;99.90
15184;DHT22;7693;49.266;7.104;2023-05-20T21:53:29;17.20;99.90
15184;DHT22;7693;49.266;7.104;2023-05-20T21:55:55;17.10;99.90
15184;DHT22;7693;49.266;7.104;2023-05-20T21:58:21;17.10;99.90
15184;DHT22;7693;49.266;7.104;2023-05-20T22:00:47;17.00;99.90
15184;DHT22;7693;49.266;7.104;2023-05-20T22:03:13;17.00;99.90
15184;DHT22;7693;49.266;7.104;2023-05-20T22:05:39;17.00;99.90
15184;DHT22;7693;49.266;7.104;2023-05-20T22:08:05;17.00;99.90
15184;DHT22;7693;49.266;7.104;2023-05-20T22:10:31;17.00;99.90
15184;DHT22;7693;49.266;7.104;2023-05-20T22:12:58;16.90;99.90
15184;DHT22;7693;49.266;7.104;2023-05-20T22:15:26;16.90;99.90
15184;DHT22;7693;49.266;7.104;2023-05-20T22:17:52;16.90;99.90
15184;DHT22;7693;49.266;7.104;2023-05-20T22:20:19;16.90;99.90
15184;DHT22;7693;49.266;7.104;2023-05-20T22:22:45;16.90;99.90
15184;DHT22;7693;49.266;7.104;2023-05-20T22:25:12;16.80;99.90
15184;DHT22;7693;49.266;7.104;2023-05-20T22:27:38;16.80;99.90
15184;DHT22;7693;49.266;7.104;2023-05-20T22:30:08;16.80;99.90
15184;DHT22;7693;49.266;7.104;2023-05-20T22:32:34;16.80;99.90
15184;DHT22;7693;49.266;7.104;2023-05-20T22:34:59;16.70;99.90
